createdAt,value
2022-08-11T01:35:52.453Z,0.00
2022-08-11T01:36:53.601Z,0.00
2022-08-11T02:30:47.996Z,0.00
2022-08-11T02:43:23.829Z,0.00
2022-08-11T03:22:02.578Z,12.00
2022-08-11T05:29:08.278Z,3632.00
2022-08-11T05:29:59.888Z,3656.00
2022-08-11T05:37:23.804Z,3808.00
2022-08-11T05:37:55.520Z,3824.00
2022-08-11T05:38:54.500Z,3840.00
2022-08-11T05:39:54.518Z,3864.00
2022-08-11T05:41:00.308Z,3888.00
2022-08-11T05:46:37.340Z,4212.00
2022-08-11T05:47:38.186Z,4152.00
2022-08-11T05:48:35.836Z,4212.00
2022-08-11T05:49:35.930Z,4540.00
2022-08-11T05:50:37.251Z,4924.00
2022-08-11T05:51:36.524Z,4940.00
2022-08-11T05:54:57.526Z,7184.00
2022-08-11T06:01:17.431Z,7036.00
2022-08-11T06:15:30.629Z,6544.00
2022-08-11T06:16:30.280Z,6560.00
2022-08-11T06:17:38.899Z,6564.00
2022-08-11T06:18:30.900Z,6564.00
2022-08-11T06:19:29.876Z,6568.00
2022-08-11T06:20:29.785Z,6576.00
2022-08-11T06:21:30.061Z,6576.00
2022-08-11T06:22:29.812Z,6592.00
2022-08-11T06:23:29.736Z,6612.00
2022-08-11T06:24:30.049Z,6624.00
2022-08-11T06:40:16.278Z,7012.00
2022-08-11T06:40:36.361Z,7068.00
2022-08-11T06:59:17.099Z,22400.00
2022-08-11T07:00:06.608Z,22336.00
2022-08-11T07:01:06.557Z,23296.00
2022-08-11T07:02:06.431Z,23648.00
2022-08-11T07:03:06.451Z,23680.00
2022-08-11T07:04:06.403Z,23488.00
2022-08-11T07:05:06.473Z,23808.00
2022-08-11T07:06:06.353Z,24320.00
2022-08-11T07:07:06.359Z,24736.00
2022-08-11T07:08:33.238Z,25120.00
2022-08-11T07:09:07.388Z,24448.00
2022-08-11T07:10:06.353Z,24992.00
2022-08-11T07:11:06.302Z,25504.00
2022-08-11T07:12:06.375Z,25088.00
2022-08-11T07:13:06.275Z,25856.00
2022-08-11T07:14:06.256Z,26048.00
2022-08-11T07:15:06.276Z,26016.00
2022-08-11T07:16:11.180Z,25760.00
2022-08-11T07:17:07.344Z,26688.00
2022-08-11T07:18:06.237Z,27456.00
2022-08-11T07:19:06.199Z,28640.00
2022-08-11T07:42:43.297Z,34240.00
2022-08-11T08:10:08.381Z,41632.00
2022-08-11T08:11:08.198Z,43296.00
2022-08-11T08:12:07.981Z,44352.00
2022-08-11T08:13:07.828Z,44672.00
2022-08-11T08:14:07.695Z,45376.00
2022-08-11T08:15:07.667Z,44672.00
2022-08-11T08:16:07.676Z,45632.00
2022-08-11T08:17:07.678Z,45440.00
2022-08-11T08:18:09.217Z,43680.00
2022-08-11T08:19:08.644Z,44800.00
2022-08-11T08:20:07.628Z,47328.00
2022-08-11T08:21:07.586Z,46784.00
2022-08-11T08:22:38.228Z,45824.00
2022-08-11T08:23:08.656Z,45216.00
2022-08-11T08:24:07.568Z,44704.00
2022-08-11T08:25:07.529Z,45216.00
2022-08-11T08:37:44.955Z,50528.00
2022-08-11T08:38:41.035Z,48096.00
2022-08-11T08:39:39.616Z,49792.00
2022-08-11T08:40:39.799Z,51648.00
2022-08-11T08:41:39.138Z,52064.00
2022-08-11T08:42:44.398Z,52704.00
2022-08-11T08:43:49.164Z,53344.00
2022-08-11T08:44:41.502Z,52704.00
2022-08-11T08:45:39.110Z,52512.00
2022-08-11T08:46:39.117Z,54560.00
2022-08-11T08:47:43.149Z,56064.00
2022-08-11T08:48:39.055Z,56288.00
2022-08-11T08:49:40.477Z,54400.00
2022-08-11T08:50:39.058Z,52544.00
2022-08-11T08:51:58.657Z,52032.00
2022-08-11T08:52:43.694Z,53792.00
2022-08-11T08:53:39.047Z,55168.00
2022-08-11T08:54:40.064Z,54944.00
2022-08-11T08:55:43.611Z,53152.00
2022-08-11T08:56:40.137Z,56000.00
2022-08-11T08:57:40.260Z,56064.00
2022-08-11T08:58:38.989Z,54176.00
2022-08-11T08:59:48.694Z,53024.00
2022-08-11T09:02:12.430Z,55520.00
2022-08-11T09:03:36.641Z,56512.00
2022-08-11T09:04:12.216Z,57792.00
2022-08-11T09:05:10.573Z,59232.00
2022-08-11T09:06:09.753Z,60896.00
2022-08-11T09:07:10.730Z,60128.00
2022-08-11T09:08:09.686Z,58816.00
2022-08-11T09:09:09.646Z,57760.00
2022-08-11T09:10:09.674Z,59456.00
2022-08-11T09:11:13.615Z,58880.00
2022-08-11T09:12:09.634Z,59808.00
2022-08-11T09:13:09.586Z,61440.00
2022-08-11T09:14:14.938Z,61472.00
2022-08-11T09:15:10.735Z,62944.00
2022-08-11T09:16:09.559Z,64640.00
2022-08-11T09:17:09.569Z,64800.00
2022-08-11T09:18:09.617Z,64768.00
2022-08-11T09:19:09.822Z,66176.00
2022-08-11T09:20:09.637Z,67264.00
2022-08-11T09:21:09.539Z,67520.00
2022-08-11T09:22:09.529Z,67552.00
2022-08-11T09:24:06.621Z,64800.00
2022-08-11T09:24:17.046Z,63936.00
2022-08-11T09:25:10.488Z,63264.00
2022-08-11T09:26:09.512Z,60608.00
2022-08-11T09:27:09.481Z,60800.00
2022-08-11T09:28:09.635Z,64448.00
2022-08-11T09:29:09.537Z,66944.00
2022-08-11T09:30:11.189Z,66080.00
2022-08-11T09:31:09.581Z,67616.00
2022-08-11T09:32:09.427Z,67360.00
2022-08-11T09:39:59.429Z,68288.00
2022-08-11T09:41:04.752Z,68320.00
2022-08-11T09:43:15.287Z,67104.00
2022-08-11T09:52:15.609Z,71200.00
2022-08-11T09:53:36.355Z,70816.00
2022-08-11T09:54:16.127Z,70560.00
2022-08-11T09:55:14.995Z,71264.00
2022-08-11T09:56:15.007Z,72576.00
2022-08-11T09:57:14.976Z,73792.00
2022-08-11T09:58:41.907Z,72480.00
2022-08-11T09:59:15.957Z,71520.00
2022-08-11T10:00:15.021Z,71712.00
2022-08-11T10:01:14.986Z,71072.00
2022-08-11T10:02:14.909Z,72512.00
2022-08-11T10:03:14.907Z,72000.00
2022-08-11T10:04:14.906Z,71200.00
2022-08-11T10:05:14.879Z,70368.00
2022-08-11T10:06:14.877Z,70496.00
2022-08-11T10:14:33.749Z,72384.00
2022-08-11T10:15:22.880Z,71488.00
2022-08-11T10:16:21.559Z,72512.00
2022-08-11T10:17:21.328Z,72704.00
2022-08-11T10:18:21.306Z,73664.00
2022-08-11T10:19:21.307Z,71008.00
2022-08-11T10:20:25.662Z,71488.00
2022-08-11T10:21:21.258Z,71776.00
2022-08-11T10:22:21.248Z,72096.00
2022-08-11T10:23:21.228Z,71936.00
2022-08-11T10:24:21.241Z,72128.00
2022-08-11T10:25:21.275Z,69952.00
2022-08-11T10:26:21.347Z,71328.00
2022-08-11T10:27:22.041Z,72160.00
2022-08-11T10:28:36.438Z,72704.00
2022-08-11T10:29:22.166Z,72032.00
2022-08-11T10:30:21.147Z,72096.00
2022-08-11T10:31:21.155Z,68608.00
2022-08-11T10:32:21.120Z,67552.00
2022-08-11T10:33:37.715Z,70624.00
2022-08-11T10:34:22.149Z,73440.00
2022-08-11T10:35:21.125Z,74368.00
2022-08-11T10:36:21.080Z,76320.00
2022-08-11T10:37:21.102Z,75456.00
2022-08-11T10:38:21.054Z,78272.00
2022-08-11T10:39:21.131Z,77792.00
2022-08-11T10:40:21.071Z,79136.00
2022-08-11T10:41:21.041Z,81408.00
2022-08-11T10:42:41.471Z,80288.00
2022-08-11T10:44:01.534Z,80320.00
2022-08-11T10:44:22.008Z,80736.00
2022-08-11T10:45:20.974Z,81568.00
2022-08-11T10:46:29.580Z,77856.00
2022-08-11T10:47:21.981Z,76544.00
2022-08-11T10:48:20.934Z,77696.00
2022-08-11T10:49:20.933Z,80160.00
2022-08-11T10:50:20.975Z,85248.00
2022-08-11T10:51:50.682Z,86432.00
2022-08-11T10:52:21.889Z,88032.00
2022-08-11T10:53:20.916Z,89152.00
2022-08-11T10:54:21.197Z,85184.00
2022-08-11T10:55:20.911Z,85440.00
2022-08-11T10:56:20.871Z,87040.00
2022-08-11T10:57:20.874Z,91136.00
2022-08-11T10:58:20.832Z,93536.00
2022-08-11T10:59:20.832Z,93376.00
2022-08-11T11:00:20.847Z,89728.00
2022-08-11T11:01:20.836Z,84416.00
2022-08-11T11:02:20.853Z,83968.00
2022-08-11T11:03:22.842Z,90528.00
2022-08-11T11:04:20.803Z,93056.00
2022-08-11T11:05:20.944Z,94048.00
2022-08-11T11:06:29.244Z,94656.00
2022-08-11T11:07:21.986Z,99040.00
2022-08-11T11:08:20.857Z,99232.00
2022-08-11T11:11:56.548Z,100000.00
2022-08-11T11:12:57.040Z,102784.00
2022-08-11T11:13:57.351Z,101472.00
2022-08-11T11:14:59.001Z,100288.00
2022-08-11T11:19:46.042Z,102496.00
2022-08-11T11:20:47.712Z,102528.00
2022-08-11T11:21:46.481Z,101056.00
2022-08-11T11:22:45.492Z,99744.00
2022-08-11T11:23:45.524Z,98816.00
2022-08-11T11:24:45.559Z,94560.00
2022-08-11T11:25:45.454Z,95136.00
2022-08-11T11:26:45.510Z,95584.00
2022-08-11T11:27:46.577Z,95008.00
2022-08-11T11:28:45.533Z,99104.00
2022-08-11T11:29:45.421Z,101536.00
2022-08-11T11:30:45.457Z,103584.00
2022-08-11T11:31:45.377Z,104576.00
2022-08-11T11:32:49.116Z,99520.00
2022-08-11T11:34:06.891Z,103456.00
2022-08-11T11:34:53.182Z,98304.00
2022-08-11T11:35:46.350Z,99968.00
2022-08-11T11:36:45.524Z,103040.00
2022-08-11T11:38:03.646Z,104960.00
2022-08-11T11:38:46.462Z,101664.00
2022-08-11T11:39:45.442Z,92064.00
2022-08-11T11:40:45.289Z,90304.00
2022-08-11T11:41:45.402Z,92128.00
2022-08-11T11:42:45.343Z,99168.00
2022-08-11T11:43:45.376Z,98752.00
2022-08-11T11:44:45.224Z,99520.00
2022-08-11T11:45:45.248Z,97248.00
2022-08-11T11:46:45.301Z,92640.00
2022-08-11T11:47:45.422Z,96448.00
2022-08-11T11:48:45.241Z,98624.00
2022-08-11T11:49:45.314Z,98816.00
2022-08-11T11:50:45.195Z,95136.00
2022-08-11T11:51:45.583Z,96800.00
2022-08-11T11:52:45.363Z,96768.00
2022-08-11T11:53:46.265Z,98784.00
2022-08-11T11:54:45.157Z,98272.00
2022-08-11T11:55:45.222Z,93472.00
2022-08-11T11:56:45.108Z,97152.00
2022-08-11T11:57:58.808Z,94624.00
2022-08-11T11:58:46.133Z,95584.00
2022-08-11T11:59:45.140Z,99424.00
2022-08-11T12:00:45.089Z,92768.00
2022-08-11T12:01:47.050Z,96352.00
2022-08-11T12:02:46.039Z,92864.00
2022-08-11T12:03:45.047Z,93472.00
2022-08-11T12:04:45.714Z,92224.00
2022-08-11T12:05:44.992Z,95264.00
2022-08-11T12:06:44.971Z,92672.00
2022-08-11T12:07:45.013Z,93984.00
2022-08-11T12:08:45.979Z,90624.00
2022-08-11T12:09:44.941Z,91360.00
2022-08-11T12:10:44.958Z,89056.00
2022-08-11T12:11:44.922Z,92096.00
2022-08-11T12:12:44.962Z,89664.00
2022-08-11T12:13:44.903Z,89088.00
2022-08-11T12:14:44.895Z,88576.00
2022-08-11T12:16:33.250Z,88096.00
2022-08-11T12:16:45.878Z,90592.00
2022-08-11T12:17:44.853Z,88736.00
2022-08-11T12:18:44.847Z,85440.00
2022-08-11T12:19:48.347Z,85728.00
2022-08-11T12:20:45.035Z,89632.00
2022-08-11T12:21:44.826Z,85472.00
2022-08-11T12:22:45.805Z,92000.00
2022-08-11T12:23:44.807Z,85152.00
2022-08-11T12:24:45.094Z,86304.00
2022-08-11T22:12:34.324Z,0.00
2022-08-11T22:13:16.084Z,0.00
2022-08-11T22:28:47.456Z,0.00
2022-08-11T22:29:51.007Z,0.00
2022-08-11T22:30:47.276Z,0.00
2022-08-11T22:31:47.237Z,0.00
2022-08-11T22:32:47.226Z,0.00
2022-08-11T22:34:02.711Z,0.00
2022-08-11T22:34:53.339Z,0.00
2022-08-11T22:35:48.186Z,0.00
2022-08-11T22:36:47.207Z,0.00
2022-08-11T22:37:47.170Z,0.00
2022-08-11T22:38:47.169Z,0.00
2022-08-11T22:40:02.720Z,0.00
2022-08-11T22:40:48.207Z,0.00
2022-08-11T22:41:47.132Z,0.00
2022-08-11T22:42:52.331Z,0.00
2022-08-11T22:43:47.093Z,0.00
2022-08-11T22:44:47.241Z,0.00
2022-08-11T22:45:47.091Z,0.00
2022-08-11T22:46:47.021Z,0.00
2022-08-11T22:47:47.021Z,0.00
2022-08-11T22:48:47.002Z,0.00
2022-08-11T22:49:57.420Z,0.00
2022-08-11T22:50:47.972Z,0.00
2022-08-11T22:51:47.029Z,0.00
2022-08-11T22:52:47.323Z,0.00
2022-08-11T22:53:57.164Z,0.00
2022-08-11T22:54:47.913Z,0.00
2022-08-11T22:55:46.949Z,0.00
2022-08-11T22:56:46.978Z,0.00
2022-08-11T22:58:00.925Z,0.00
2022-08-11T22:58:47.872Z,0.00
2022-08-11T22:59:46.849Z,0.00
2022-08-11T23:00:46.888Z,0.00
2022-08-11T23:01:56.413Z,0.00
2022-08-11T23:02:48.608Z,0.00
2022-08-11T23:03:46.787Z,0.00
2022-08-11T23:04:53.123Z,0.00
2022-08-11T23:05:47.808Z,0.00
2022-08-11T23:06:46.808Z,0.00
2022-08-11T23:07:50.735Z,0.00
2022-08-11T23:08:47.725Z,0.00
2022-08-11T23:09:46.766Z,0.00
2022-08-11T23:10:46.732Z,0.00
2022-08-11T23:12:05.880Z,0.00
2022-08-11T23:12:47.680Z,0.00
2022-08-11T23:13:46.640Z,0.00
2022-08-11T23:14:46.720Z,0.00
2022-08-11T23:15:46.729Z,0.00
2022-08-11T23:16:46.647Z,0.00
2022-08-11T23:17:46.612Z,0.00
2022-08-11T23:18:49.911Z,0.00
2022-08-11T23:20:08.734Z,0.00
2022-08-11T23:20:54.875Z,0.00
2022-08-11T23:21:47.531Z,0.00
2022-08-11T23:22:49.769Z,0.00
2022-08-11T23:23:46.582Z,0.00
2022-08-11T23:24:46.582Z,0.00
2022-08-11T23:25:46.663Z,0.00
2022-08-11T23:26:46.481Z,0.00
2022-08-11T23:27:46.451Z,0.00
2022-08-11T23:28:46.493Z,0.00
2022-08-11T23:29:46.412Z,0.00
2022-08-11T23:30:46.410Z,0.00
2022-08-11T23:31:50.647Z,0.00
2022-08-11T23:32:47.434Z,0.00
2022-08-11T23:33:46.364Z,0.00
2022-08-11T23:35:37.038Z,0.00
2022-08-11T23:35:53.976Z,0.00
2022-08-11T23:36:48.086Z,0.00
2022-08-11T23:37:46.388Z,0.00
2022-08-11T23:38:46.305Z,0.00
2022-08-11T23:39:46.366Z,0.00
2022-08-11T23:40:46.304Z,0.00
2022-08-11T23:41:46.352Z,0.00
2022-08-11T23:42:46.350Z,0.00
2022-08-11T23:43:46.226Z,0.00
2022-08-11T23:44:46.247Z,0.00
2022-08-11T23:45:46.217Z,0.00
2022-08-11T23:46:46.177Z,0.00
2022-08-11T23:47:50.396Z,0.00
2022-08-11T23:48:46.128Z,0.00
2022-08-11T23:49:46.165Z,0.00
2022-08-11T23:50:46.121Z,0.00
2022-08-11T23:51:46.117Z,0.00
2022-08-11T23:52:46.100Z,0.00
2022-08-11T23:53:46.119Z,0.00
2022-08-11T23:54:46.168Z,0.00
2022-08-11T23:55:46.091Z,0.00
2022-08-11T23:56:46.022Z,0.00
2022-08-11T23:57:48.927Z,0.00
2022-08-11T23:58:46.031Z,0.00
2022-08-11T23:59:45.980Z,0.00
